sensor_id;sensor_type;location;lat;lon;timestamp;temperature;humidity
8043;DHT22;4064;48.132;11.366;2023-11-21T00:00:19;6.60;99.90
8043;DHT22;4064;48.132;11.366;2023-11-21T00:02:45;6.50;99.90
8043;DHT22;4064;48.132;11.366;2023-11-21T00:05:12;6.50;99.90
8043;DHT22;4064;48.132;11.366;2023-11-21T00:07:40;6.40;99.90
8043;DHT22;4064;48.132;11.366;2023-11-21T00:10:07;6.40;99.90
8043;DHT22;4064;48.132;11.366;2023-11-21T00:12:37;6.50;99.90
8043;DHT22;4064;48.132;11.366;2023-11-21T00:15:03;6.40;99.90
8043;DHT22;4064;48.132;11.366;2023-11-21T00:17:30;6.50;99.90
8043;DHT22;4064;48.132;11.366;2023-11-21T00:19:56;6.40;99.90
8043;DHT22;4064;48.132;11.366;2023-11-21T00:22:22;6.40;99.90
8043;DHT22;4064;48.132;11.366;2023-11-21T00:24:47;6.40;99.90
8043;DHT22;4064;48.132;11.366;2023-11-21T00:27:13;6.40;99.90
8043;DHT22;4064;48.132;11.366;2023-11-21T00:29:40;6.40;99.90
8043;DHT22;4064;48.132;11.366;2023-11-21T00:32:06;6.40;99.90
8043;DHT22;4064;48.132;11.366;2023-11-21T00:34:32;6.30;99.90
8043;DHT22;4064;48.132;11.366;2023-11-21T00:36:58;6.40;99.90
8043;DHT22;4064;48.132;11.366;2023-11-21T00:39:24;6.40;99.90
8043;DHT22;4064;48.132;11.366;2023-11-21T00:41:51;6.40;99.90
8043;DHT22;4064;48.132;11.366;2023-11-21T00:44:18;6.40;99.90
8043;DHT22;4064;48.132;11.366;2023-11-21T00:46:44;6.40;99.90
8043;DHT22;4064;48.132;11.366;2023-11-21T00:49:10;6.40;99.90
8043;DHT22;4064;48.132;11.366;2023-11-21T00:51:35;6.40;99.90
8043;DHT22;4064;48.132;11.366;2023-11-21T00:54:01;6.40;99.90
8043;DHT22;4064;48.132;11.366;2023-11-21T00:56:27;6.30;99.90
8043;DHT22;4064;48.132;11.366;2023-11-21T00:58:54;6.30;99.90
8043;DHT22;4064;48.132;11.366;2023-11-21T01:01:20;6.20;99.90
8043;DHT22;4064;48.132;11.366;2023-11-21T01:03:47;6.20;99.90
8043;DHT22;4064;48.132;11.366;2023-11-21T01:06:13;6.10;99.90
8043;DHT22;4064;48.132;11.366;2023-11-21T01:08:40;6.10;99.90
8043;DHT22;4064;48.132;11.366;2023-11-21T01:11:05;6.10;99.90
8043;DHT22;4064;48.132;11.366;2023-11-21T01:13:34;6.00;99.90
8043;DHT22;4064;48.132;11.366;2023-11-21T01:16:00;6.10;99.90
8043;DHT22;4064;48.132;11.366;2023-11-21T01:18:26;6.10;99.90
8043;DHT22;4064;48.132;11.366;2023-11-21T01:20:52;6.00;99.90
8043;DHT22;4064;48.132;11.366;2023-11-21T01:23:20;6.10;99.90
8043;DHT22;4064;48.132;11.366;2023-11-21T01:25:46;5.90;99.90
8043;DHT22;4064;48.132;11.366;2023-11-21T01:28:12;5.90;99.90
8043;DHT22;4064;48.132;11.366;2023-11-21T01:30:38;5.90;99.90
8043;DHT22;4064;48.132;11.366;2023-11-21T01:33:03;5.80;99.90
8043;DHT22;4064;48.132;11.366;2023-11-21T01:35:29;5.80;99.90
8043;DHT22;4064;48.132;11.366;2023-11-21T01:37:55;5.70;99.90
8043;DHT22;4064;48.132;11.366;2023-11-21T01:40:21;5.80;99.90
8043;DHT22;4064;48.132;11.366;2023-11-21T01:42:47;6.00;99.90
8043;DHT22;4064;48.132;11.366;2023-11-21T01:45:13;5.90;99.90
8043;DHT22;4064;48.132;11.366;2023-11-21T01:47:41;5.90;99.90
8043;DHT22;4064;48.132;11.366;2023-11-21T01:50:08;5.90;99.90
8043;DHT22;4064;48.132;11.366;2023-11-21T01:52:37;5.90;99.90
8043;DHT22;4064;48.132;11.366;2023-11-21T01:55:05;6.00;99.90
8043;DHT22;4064;48.132;11.366;2023-11-21T01:57:32;6.10;99.90
8043;DHT22;4064;48.132;11.366;2023-11-21T01:59:58;6.10;99.90
8043;DHT22;4064;48.132;11.366;2023-11-21T02:02:26;6.10;99.90
8043;DHT22;4064;48.132;11.366;2023-11-21T02:04:52;6.10;99.90
8043;DHT22;4064;48.132;11.366;2023-11-21T02:07:18;6.00;99.90
8043;DHT22;4064;48.132;11.366;2023-11-21T02:09:44;6.10;99.90
8043;DHT22;4064;48.132;11.366;2023-11-21T02:12:10;6.10;99.90
8043;DHT22;4064;48.132;11.366;2023-11-21T02:14:36;6.20;99.90
8043;DHT22;4064;48.132;11.366;2023-11-21T02:17:02;6.20;99.90
8043;DHT22;4064;48.132;11.366;2023-11-21T02:19:29;6.20;99.90
8043;DHT22;4064;48.132;11.366;2023-11-21T02:21:56;6.20;99.90
8043;DHT22;4064;48.132;11.366;2023-11-21T02:24:28;6.20;99.90
8043;DHT22;4064;48.132;11.366;2023-11-21T02:26:54;6.20;99.90
8043;DHT22;4064;48.132;11.366;2023-11-21T02:29:20;6.20;99.90
8043;DHT22;4064;48.132;11.366;2023-11-21T02:31:54;6.30;99.90
8043;DHT22;4064;48.132;11.366;2023-11-21T02:34:20;6.20;99.90
8043;DHT22;4064;48.132;11.366;2023-11-21T02:36:47;6.20;99.90
8043;DHT22;4064;48.132;11.366;2023-11-21T02:39:15;6.10;99.90
8043;DHT22;4064;48.132;11.366;2023-11-21T02:41:42;6.20;99.90
8043;DHT22;4064;48.132;11.366;2023-11-21T02:44:08;6.20;99.90
8043;DHT22;4064;48.132;11.366;2023-11-21T02:46:35;6.20;99.90
8043;DHT22;4064;48.132;11.366;2023-11-21T02:49:02;6.20;99.90
8043;DHT22;4064;48.132;11.366;2023-11-21T02:51:28;6.10;99.90
8043;DHT22;4064;48.132;11.366;2023-11-21T02:53:54;6.10;99.90
8043;DHT22;4064;48.132;11.366;2023-11-21T02:56:24;6.10;99.90
8043;DHT22;4064;48.132;11.366;2023-11-21T02:58:51;6.10;99.90
8043;DHT22;4064;48.132;11.366;2023-11-21T03:01:16;6.20;99.90
8043;DHT22;4064;48.132;11.366;2023-11-21T03:03:42;6.20;99.90
8043;DHT22;4064;48.132;11.366;2023-11-21T03:06:08;6.30;99.90
8043;DHT22;4064;48.132;11.366;2023-11-21T03:08:34;6.20;99.90
8043;DHT22;4064;48.132;11.366;2023-11-21T03:11:00;6.30;99.90
8043;DHT22;4064;48.132;11.366;2023-11-21T03:13:25;6.30;99.90
8043;DHT22;4064;48.132;11.366;2023-11-21T03:15:51;6.30;99.90
8043;DHT22;4064;48.132;11.366;2023-11-21T03:18:17;6.30;99.90
8043;DHT22;4064;48.132;11.366;2023-11-21T03:20:43;6.30;99.90
8043;DHT22;4064;48.132;11.366;2023-11-21T03:23:12;6.40;99.90
8043;DHT22;4064;48.132;11.366;2023-11-21T03:25:38;6.40;99.90
8043;DHT22;4064;48.132;11.366;2023-11-21T03:28:04;6.40;99.90
8043;DHT22;4064;48.132;11.366;2023-11-21T03:30:29;6.40;99.90
8043;DHT22;4064;48.132;11.366;2023-11-21T03:32:55;6.40;99.90
8043;DHT22;4064;48.132;11.366;2023-11-21T03:35:21;6.40;99.90
8043;DHT22;4064;48.132;11.366;2023-11-21T03:37:47;6.30;99.90
8043;DHT22;4064;48.132;11.366;2023-11-21T03:40:13;6.40;99.90
8043;DHT22;4064;48.132;11.366;2023-11-21T03:42:39;6.40;99.90
8043;DHT22;4064;48.132;11.366;2023-11-21T03:45:05;6.50;99.90
8043;DHT22;4064;48.132;11.366;2023-11-21T03:47:32;6.40;99.90
8043;DHT22;4064;48.132;11.366;2023-11-21T03:49:57;6.40;99.90
8043;DHT22;4064;48.132;11.366;2023-11-21T03:52:24;6.40;99.90
8043;DHT22;4064;48.132;11.366;2023-11-21T03:54:49;6.50;99.90
8043;DHT22;4064;48.132;11.366;2023-11-21T03:57:15;6.50;99.90
8043;DHT22;4064;48.132;11.366;2023-11-21T03:59:41;6.40;99.90
8043;DHT22;4064;48.132;11.366;2023-11-21T04:02:07;6.40;99.90
8043;DHT22;4064;48.132;11.366;2023-11-21T04:04:34;6.40;99.90
8043;DHT22;4064;48.132;11.366;2023-11-21T04:06:59;6.50;99.90
8043;DHT22;4064;48.132;11.366;2023-11-21T04:09:25;6.50;99.90
8043;DHT22;4064;48.132;11.366;2023-11-21T04:11:52;6.50;99.90
8043;DHT22;4064;48.132;11.366;2023-11-21T04:14:18;6.50;99.90
8043;DHT22;4064;48.132;11.366;2023-11-21T04:16:43;6.50;99.90
8043;DHT22;4064;48.132;11.366;2023-11-21T04:19:09;6.50;99.90
8043;DHT22;4064;48.132;11.366;2023-11-21T04:21:36;6.50;99.90
8043;DHT22;4064;48.132;11.366;2023-11-21T04:24:02;6.50;99.90
8043;DHT22;4064;48.132;11.366;2023-11-21T04:26:28;6.50;99.90
8043;DHT22;4064;48.132;11.366;2023-11-21T04:28:53;6.40;99.90
8043;DHT22;4064;48.132;11.366;2023-11-21T04:31:19;6.40;99.90
8043;DHT22;4064;48.132;11.366;2023-11-21T04:33:45;6.40;99.90
8043;DHT22;4064;48.132;11.366;2023-11-21T04:36:10;6.40;99.90
8043;DHT22;4064;48.132;11.366;2023-11-21T04:38:36;6.40;99.90
8043;DHT22;4064;48.132;11.366;2023-11-21T04:41:02;6.40;99.90
8043;DHT22;4064;48.132;11.366;2023-11-21T04:43:27;6.40;99.90
8043;DHT22;4064;48.132;11.366;2023-11-21T04:45:54;6.30;99.90
8043;DHT22;4064;48.132;11.366;2023-11-21T04:48:20;6.30;99.90
8043;DHT22;4064;48.132;11.366;2023-11-21T04:50:46;6.30;99.90
8043;DHT22;4064;48.132;11.366;2023-11-21T04:53:11;6.30;99.90
8043;DHT22;4064;48.132;11.366;2023-11-21T04:55:40;6.30;99.90
8043;DHT22;4064;48.132;11.366;2023-11-21T04:58:06;6.30;99.90
8043;DHT22;4064;48.132;11.366;2023-11-21T05:00:32;6.20;99.90
8043;DHT22;4064;48.132;11.366;2023-11-21T05:02:57;6.20;99.90
8043;DHT22;4064;48.132;11.366;2023-11-21T05:05:23;6.20;99.90
8043;DHT22;4064;48.132;11.366;2023-11-21T05:07:49;6.20;99.90
8043;DHT22;4064;48.132;11.366;2023-11-21T05:10:15;6.20;99.90
8043;DHT22;4064;48.132;11.366;2023-11-21T05:12:41;6.20;99.90
8043;DHT22;4064;48.132;11.366;2023-11-21T05:15:08;6.10;99.90
8043;DHT22;4064;48.132;11.366;2023-11-21T05:17:38;6.10;99.90
8043;DHT22;4064;48.132;11.366;2023-11-21T05:20:08;6.10;99.90
8043;DHT22;4064;48.132;11.366;2023-11-21T05:22:35;6.10;99.90
8043;DHT22;4064;48.132;11.366;2023-11-21T05:25:02;6.10;99.90
8043;DHT22;4064;48.132;11.366;2023-11-21T05:27:29;6.10;99.90
8043;DHT22;4064;48.132;11.366;2023-11-21T05:29:58;6.10;99.90
8043;DHT22;4064;48.132;11.366;2023-11-21T05:32:25;6.10;99.90
8043;DHT22;4064;48.132;11.366;2023-11-21T05:34:51;6.10;99.90
8043;DHT22;4064;48.132;11.366;2023-11-21T05:37:17;6.10;99.90
8043;DHT22;4064;48.132;11.366;2023-11-21T05:39:43;6.10;99.90
8043;DHT22;4064;48.132;11.366;2023-11-21T05:42:09;6.10;99.90
8043;DHT22;4064;48.132;11.366;2023-11-21T05:44:36;6.10;99.90
8043;DHT22;4064;48.132;11.366;2023-11-21T05:47:02;6.10;99.90
8043;DHT22;4064;48.132;11.366;2023-11-21T05:49:29;6.00;99.90
8043;DHT22;4064;48.132;11.366;2023-11-21T05:51:55;6.00;99.90
8043;DHT22;4064;48.132;11.366;2023-11-21T05:54:21;5.90;99.90
8043;DHT22;4064;48.132;11.366;2023-11-21T05:56:47;5.90;99.90
8043;DHT22;4064;48.132;11.366;2023-11-21T05:59:13;5.90;99.90
8043;DHT22;4064;48.132;11.366;2023-11-21T06:01:40;6.00;99.90
8043;DHT22;4064;48.132;11.366;2023-11-21T06:04:05;6.00;99.90
8043;DHT22;4064;48.132;11.366;2023-11-21T06:06:33;6.00;99.90
8043;DHT22;4064;48.132;11.366;2023-11-21T06:08:59;6.10;99.90
8043;DHT22;4064;48.132;11.366;2023-11-21T06:11:25;6.10;99.90
8043;DHT22;4064;48.132;11.366;2023-11-21T06:13:51;6.10;99.90
8043;DHT22;4064;48.132;11.366;2023-11-21T06:16:19;6.10;99.90
8043;DHT22;4064;48.132;11.366;2023-11-21T06:18:48;6.10;99.90
8043;DHT22;4064;48.132;11.366;2023-11-21T06:21:13;6.10;99.90
8043;DHT22;4064;48.132;11.366;2023-11-21T06:23:39;6.10;99.90
8043;DHT22;4064;48.132;11.366;2023-11-21T06:26:06;6.10;99.90
8043;DHT22;4064;48.132;11.366;2023-11-21T06:28:31;6.10;99.90
8043;DHT22;4064;48.132;11.366;2023-11-21T06:30:57;6.10;99.90
8043;DHT22;4064;48.132;11.366;2023-11-21T06:33:31;6.10;99.90
8043;DHT22;4064;48.132;11.366;2023-11-21T06:35:57;6.20;99.90
8043;DHT22;4064;48.132;11.366;2023-11-21T06:38:22;6.10;99.90
8043;DHT22;4064;48.132;11.366;2023-11-21T06:40:48;6.10;99.90
8043;DHT22;4064;48.132;11.366;2023-11-21T06:43:14;6.20;99.90
8043;DHT22;4064;48.132;11.366;2023-11-21T06:45:40;6.10;99.90
8043;DHT22;4064;48.132;11.366;2023-11-21T06:48:05;6.20;99.90
8043;DHT22;4064;48.132;11.366;2023-11-21T06:50:31;6.20;99.90
8043;DHT22;4064;48.132;11.366;2023-11-21T06:52:57;6.20;99.90
8043;DHT22;4064;48.132;11.366;2023-11-21T06:55:22;6.20;99.90
8043;DHT22;4064;48.132;11.366;2023-11-21T06:57:48;6.20;99.90
8043;DHT22;4064;48.132;11.366;2023-11-21T07:00:15;6.20;99.90
8043;DHT22;4064;48.132;11.366;2023-11-21T07:02:43;6.20;99.90
8043;DHT22;4064;48.132;11.366;2023-11-21T07:05:09;6.20;99.90
8043;DHT22;4064;48.132;11.366;2023-11-21T07:07:35;6.20;99.90
8043;DHT22;4064;48.132;11.366;2023-11-21T07:10:01;6.30;99.90
8043;DHT22;4064;48.132;11.366;2023-11-21T07:12:29;6.20;99.90
8043;DHT22;4064;48.132;11.366;2023-11-21T07:14:56;6.20;99.90
8043;DHT22;4064;48.132;11.366;2023-11-21T07:17:22;6.30;99.90
8043;DHT22;4064;48.132;11.366;2023-11-21T07:19:48;6.30;99.90
8043;DHT22;4064;48.132;11.366;2023-11-21T07:22:15;6.30;99.90
8043;DHT22;4064;48.132;11.366;2023-11-21T07:24:50;6.30;99.90
8043;DHT22;4064;48.132;11.366;2023-11-21T07:27:17;6.30;99.90
8043;DHT22;4064;48.132;11.366;2023-11-21T07:29:43;6.30;99.90
8043;DHT22;4064;48.132;11.366;2023-11-21T07:32:09;6.30;99.90
8043;DHT22;4064;48.132;11.366;2023-11-21T07:34:35;6.40;99.90
8043;DHT22;4064;48.132;11.366;2023-11-21T07:37:01;6.30;99.90
8043;DHT22;4064;48.132;11.366;2023-11-21T07:39:28;6.30;99.90
8043;DHT22;4064;48.132;11.366;2023-11-21T07:41:54;6.30;99.90
8043;DHT22;4064;48.132;11.366;2023-11-21T07:44:19;6.40;99.90
8043;DHT22;4064;48.132;11.366;2023-11-21T07:46:46;6.40;99.90
8043;DHT22;4064;48.132;11.366;2023-11-21T07:49:12;6.50;99.90
8043;DHT22;4064;48.132;11.366;2023-11-21T07:51:42;6.50;99.90
8043;DHT22;4064;48.132;11.366;2023-11-21T07:54:07;6.50;99.90
8043;DHT22;4064;48.132;11.366;2023-11-21T07:56:33;6.60;99.90
8043;DHT22;4064;48.132;11.366;2023-11-21T07:58:59;6.70;99.90
8043;DHT22;4064;48.132;11.366;2023-11-21T08:01:25;6.70;99.90
8043;DHT22;4064;48.132;11.366;2023-11-21T08:03:50;6.70;99.90
8043;DHT22;4064;48.132;11.366;2023-11-21T08:06:18;6.70;99.90
8043;DHT22;4064;48.132;11.366;2023-11-21T08:08:43;6.80;99.90
8043;DHT22;4064;48.132;11.366;2023-11-21T08:11:09;6.70;99.90
8043;DHT22;4064;48.132;11.366;2023-11-21T08:13:36;6.80;99.90
8043;DHT22;4064;48.132;11.366;2023-11-21T08:16:02;6.80;99.90
8043;DHT22;4064;48.132;11.366;2023-11-21T08:18:30;6.80;99.90
8043;DHT22;4064;48.132;11.366;2023-11-21T08:20:56;6.90;99.90
8043;DHT22;4064;48.132;11.366;2023-11-21T08:23:22;7.00;99.90
8043;DHT22;4064;48.132;11.366;2023-11-21T08:25:52;7.10;99.90
8043;DHT22;4064;48.132;11.366;2023-11-21T08:28:19;7.10;99.90
8043;DHT22;4064;48.132;11.366;2023-11-21T08:30:44;7.10;99.90
8043;DHT22;4064;48.132;11.366;2023-11-21T08:33:10;7.10;99.90
8043;DHT22;4064;48.132;11.366;2023-11-21T08:35:38;7.20;99.90
8043;DHT22;4064;48.132;11.366;2023-11-21T08:38:04;7.30;99.90
8043;DHT22;4064;48.132;11.366;2023-11-21T08:40:30;7.40;99.90
8043;DHT22;4064;48.132;11.366;2023-11-21T08:42:56;7.60;99.90
8043;DHT22;4064;48.132;11.366;2023-11-21T08:45:24;7.80;99.90
8043;DHT22;4064;48.132;11.366;2023-11-21T08:47:51;7.70;99.90
8043;DHT22;4064;48.132;11.366;2023-11-21T08:50:17;7.80;99.90
8043;DHT22;4064;48.132;11.366;2023-11-21T08:52:44;7.80;99.90
8043;DHT22;4064;48.132;11.366;2023-11-21T08:55:11;7.80;99.90
8043;DHT22;4064;48.132;11.366;2023-11-21T08:57:41;7.70;99.90
8043;DHT22;4064;48.132;11.366;2023-11-21T09:00:09;7.80;99.90
8043;DHT22;4064;48.132;11.366;2023-11-21T09:02:37;7.70;99.90
8043;DHT22;4064;48.132;11.366;2023-11-21T09:05:04;7.70;99.90
8043;DHT22;4064;48.132;11.366;2023-11-21T09:07:30;7.80;99.90
8043;DHT22;4064;48.132;11.366;2023-11-21T09:09:56;7.90;99.90
8043;DHT22;4064;48.132;11.366;2023-11-21T09:12:22;8.00;99.90
8043;DHT22;4064;48.132;11.366;2023-11-21T09:14:47;8.10;99.90
8043;DHT22;4064;48.132;11.366;2023-11-21T09:17:15;8.10;99.90
8043;DHT22;4064;48.132;11.366;2023-11-21T09:19:41;8.30;99.90
8043;DHT22;4064;48.132;11.366;2023-11-21T09:22:11;8.40;99.90
8043;DHT22;4064;48.132;11.366;2023-11-21T09:24:37;8.40;99.90
8043;DHT22;4064;48.132;11.366;2023-11-21T09:27:03;8.30;99.90
8043;DHT22;4064;48.132;11.366;2023-11-21T09:29:31;8.20;99.90
8043;DHT22;4064;48.132;11.366;2023-11-21T09:31:57;8.10;99.90
8043;DHT22;4064;48.132;11.366;2023-11-21T09:34:25;8.10;99.90
8043;DHT22;4064;48.132;11.366;2023-11-21T09:36:51;8.20;99.90
8043;DHT22;4064;48.132;11.366;2023-11-21T09:39:17;8.10;99.90
8043;DHT22;4064;48.132;11.366;2023-11-21T09:41:51;8.10;99.90
8043;DHT22;4064;48.132;11.366;2023-11-21T09:44:26;8.20;99.90
8043;DHT22;4064;48.132;11.366;2023-11-21T09:46:54;8.20;99.90
8043;DHT22;4064;48.132;11.366;2023-11-21T09:49:23;8.30;99.90
8043;DHT22;4064;48.132;11.366;2023-11-21T09:51:55;8.30;99.90
8043;DHT22;4064;48.132;11.366;2023-11-21T09:54:22;8.40;99.90
8043;DHT22;4064;48.132;11.366;2023-11-21T09:56:49;8.60;99.90
8043;DHT22;4064;48.132;11.366;2023-11-21T09:59:16;8.60;99.90
8043;DHT22;4064;48.132;11.366;2023-11-21T10:01:42;8.70;99.90
8043;DHT22;4064;48.132;11.366;2023-11-21T10:04:11;8.80;99.90
8043;DHT22;4064;48.132;11.366;2023-11-21T10:06:39;8.80;99.90
8043;DHT22;4064;48.132;11.366;2023-11-21T10:12:29;8.90;99.90
8043;DHT22;4064;48.132;11.366;2023-11-21T10:14:58;8.90;99.90
8043;DHT22;4064;48.132;11.366;2023-11-21T10:17:27;8.90;99.90
8043;DHT22;4064;48.132;11.366;2023-11-21T10:19:57;8.90;99.90
8043;DHT22;4064;48.132;11.366;2023-11-21T10:22:23;9.00;99.90
8043;DHT22;4064;48.132;11.366;2023-11-21T10:24:49;8.90;99.90
8043;DHT22;4064;48.132;11.366;2023-11-21T10:27:15;9.00;99.90
8043;DHT22;4064;48.132;11.366;2023-11-21T10:29:40;8.90;99.90
8043;DHT22;4064;48.132;11.366;2023-11-21T10:32:07;8.80;99.90
8043;DHT22;4064;48.132;11.366;2023-11-21T10:34:33;8.90;99.90
8043;DHT22;4064;48.132;11.366;2023-11-21T10:40:21;8.70;99.90
8043;DHT22;4064;48.132;11.366;2023-11-21T10:42:47;8.80;99.90
8043;DHT22;4064;48.132;11.366;2023-11-21T10:45:13;8.80;99.90
8043;DHT22;4064;48.132;11.366;2023-11-21T10:47:40;8.90;99.90
8043;DHT22;4064;48.132;11.366;2023-11-21T10:50:07;8.90;99.90
8043;DHT22;4064;48.132;11.366;2023-11-21T10:52:37;9.00;99.90
8043;DHT22;4064;48.132;11.366;2023-11-21T10:55:16;8.80;99.90
8043;DHT22;4064;48.132;11.366;2023-11-21T10:57:45;8.70;99.90
8043;DHT22;4064;48.132;11.366;2023-11-21T11:00:14;8.70;99.90
8043;DHT22;4064;48.132;11.366;2023-11-21T11:02:41;8.60;99.90
8043;DHT22;4064;48.132;11.366;2023-11-21T11:05:08;8.70;99.90
8043;DHT22;4064;48.132;11.366;2023-11-21T11:07:38;8.70;99.90
8043;DHT22;4064;48.132;11.366;2023-11-21T11:10:09;9.30;99.90
8043;DHT22;4064;48.132;11.366;2023-11-21T11:12:41;9.60;99.90
8043;DHT22;4064;48.132;11.366;2023-11-21T11:15:08;9.80;99.90
8043;DHT22;4064;48.132;11.366;2023-11-21T11:17:37;9.90;99.90
8043;DHT22;4064;48.132;11.366;2023-11-21T11:20:09;9.90;99.90
8043;DHT22;4064;48.132;11.366;2023-11-21T11:25:53;9.90;99.90
8043;DHT22;4064;48.132;11.366;2023-11-21T11:36:19;9.80;99.90
8043;DHT22;4064;48.132;11.366;2023-11-21T11:38:47;9.70;99.90
8043;DHT22;4064;48.132;11.366;2023-11-21T11:41:27;9.70;99.90
8043;DHT22;4064;48.132;11.366;2023-11-21T11:43:54;9.60;99.90
8043;DHT22;4064;48.132;11.366;2023-11-21T11:46:19;9.70;99.90
8043;DHT22;4064;48.132;11.366;2023-11-21T11:48:49;9.70;99.90
8043;DHT22;4064;48.132;11.366;2023-11-21T11:51:28;9.70;99.90
8043;DHT22;4064;48.132;11.366;2023-11-21T11:53:54;9.70;99.90
8043;DHT22;4064;48.132;11.366;2023-11-21T11:56:25;9.80;99.90
8043;DHT22;4064;48.132;11.366;2023-11-21T11:58:52;9.60;99.90
8043;DHT22;4064;48.132;11.366;2023-11-21T12:01:22;9.60;99.90
8043;DHT22;4064;48.132;11.366;2023-11-21T12:06:43;9.40;99.90
8043;DHT22;4064;48.132;11.366;2023-11-21T12:09:22;9.40;99.90
8043;DHT22;4064;48.132;11.366;2023-11-21T12:11:49;9.40;99.90
8043;DHT22;4064;48.132;11.366;2023-11-21T12:14:16;9.40;99.90
8043;DHT22;4064;48.132;11.366;2023-11-21T12:16:42;9.40;99.90
8043;DHT22;4064;48.132;11.366;2023-11-21T12:19:12;9.60;99.90
8043;DHT22;4064;48.132;11.366;2023-11-21T12:21:38;9.50;99.90
8043;DHT22;4064;48.132;11.366;2023-11-21T12:24:06;9.50;99.90
8043;DHT22;4064;48.132;11.366;2023-11-21T12:26:34;9.50;99.90
8043;DHT22;4064;48.132;11.366;2023-11-21T12:29:02;9.50;99.90
8043;DHT22;4064;48.132;11.366;2023-11-21T12:31:30;9.60;99.90
8043;DHT22;4064;48.132;11.366;2023-11-21T12:33:56;9.70;99.90
8043;DHT22;4064;48.132;11.366;2023-11-21T12:36:23;9.70;99.90
8043;DHT22;4064;48.132;11.366;2023-11-21T12:38:48;9.60;99.90
8043;DHT22;4064;48.132;11.366;2023-11-21T12:41:16;9.60;99.90
8043;DHT22;4064;48.132;11.366;2023-11-21T12:43:43;9.40;99.90
8043;DHT22;4064;48.132;11.366;2023-11-21T12:46:10;9.40;99.90
8043;DHT22;4064;48.132;11.366;2023-11-21T12:48:42;9.30;99.90
8043;DHT22;4064;48.132;11.366;2023-11-21T12:51:09;9.30;99.90
8043;DHT22;4064;48.132;11.366;2023-11-21T12:53:37;9.30;99.90
8043;DHT22;4064;48.132;11.366;2023-11-21T12:56:13;9.20;99.90
8043;DHT22;4064;48.132;11.366;2023-11-21T12:58:44;9.00;99.90
8043;DHT22;4064;48.132;11.366;2023-11-21T13:01:13;8.80;99.90
8043;DHT22;4064;48.132;11.366;2023-11-21T13:03:43;8.60;99.90
8043;DHT22;4064;48.132;11.366;2023-11-21T13:06:11;8.50;99.90
8043;DHT22;4064;48.132;11.366;2023-11-21T13:08:37;8.50;99.90
8043;DHT22;4064;48.132;11.366;2023-11-21T13:11:05;8.50;99.90
8043;DHT22;4064;48.132;11.366;2023-11-21T13:13:31;8.50;99.90
8043;DHT22;4064;48.132;11.366;2023-11-21T13:16:00;8.40;99.90
8043;DHT22;4064;48.132;11.366;2023-11-21T13:18:29;8.50;99.90
8043;DHT22;4064;48.132;11.366;2023-11-21T13:21:01;8.50;99.90
8043;DHT22;4064;48.132;11.366;2023-11-21T13:23:28;8.60;99.90
8043;DHT22;4064;48.132;11.366;2023-11-21T13:25:54;8.60;99.90
8043;DHT22;4064;48.132;11.366;2023-11-21T13:28:21;8.70;99.90
8043;DHT22;4064;48.132;11.366;2023-11-21T13:30:50;8.70;99.90
8043;DHT22;4064;48.132;11.366;2023-11-21T13:33:18;8.70;99.90
8043;DHT22;4064;48.132;11.366;2023-11-21T13:35:47;8.80;99.90
8043;DHT22;4064;48.132;11.366;2023-11-21T13:38:16;8.80;99.90
8043;DHT22;4064;48.132;11.366;2023-11-21T13:40:46;8.90;99.90
8043;DHT22;4064;48.132;11.366;2023-11-21T13:43:17;8.80;99.90
8043;DHT22;4064;48.132;11.366;2023-11-21T13:45:48;8.90;99.90
8043;DHT22;4064;48.132;11.366;2023-11-21T13:48:17;8.80;99.90
8043;DHT22;4064;48.132;11.366;2023-11-21T13:51:03;8.80;99.90
8043;DHT22;4064;48.132;11.366;2023-11-21T13:53:36;8.80;99.90
8043;DHT22;4064;48.132;11.366;2023-11-21T13:56:04;8.90;99.90
8043;DHT22;4064;48.132;11.366;2023-11-21T13:58:32;9.00;99.90
8043;DHT22;4064;48.132;11.366;2023-11-21T14:01:16;9.10;99.90
8043;DHT22;4064;48.132;11.366;2023-11-21T14:04:00;9.10;99.90
8043;DHT22;4064;48.132;11.366;2023-11-21T14:06:35;9.00;99.90
8043;DHT22;4064;48.132;11.366;2023-11-21T14:09:14;8.80;99.90
8043;DHT22;4064;48.132;11.366;2023-11-21T14:11:56;8.60;99.90
8043;DHT22;4064;48.132;11.366;2023-11-21T14:14:24;8.30;99.90
8043;DHT22;4064;48.132;11.366;2023-11-21T14:16:56;7.70;99.90
8043;DHT22;4064;48.132;11.366;2023-11-21T14:19:22;7.50;99.90
8043;DHT22;4064;48.132;11.366;2023-11-21T14:21:52;7.50;99.90
8043;DHT22;4064;48.132;11.366;2023-11-21T14:24:18;7.40;99.90
8043;DHT22;4064;48.132;11.366;2023-11-21T14:26:45;7.30;99.90
8043;DHT22;4064;48.132;11.366;2023-11-21T14:29:12;7.10;99.90
8043;DHT22;4064;48.132;11.366;2023-11-21T14:31:40;7.20;99.90
8043;DHT22;4064;48.132;11.366;2023-11-21T14:34:09;7.10;99.90
8043;DHT22;4064;48.132;11.366;2023-11-21T14:36:37;7.00;99.90
8043;DHT22;4064;48.132;11.366;2023-11-21T14:39:04;7.10;99.90
8043;DHT22;4064;48.132;11.366;2023-11-21T14:41:34;7.10;99.90
8043;DHT22;4064;48.132;11.366;2023-11-21T14:44:01;7.20;99.90
8043;DHT22;4064;48.132;11.366;2023-11-21T14:46:28;7.10;99.90
8043;DHT22;4064;48.132;11.366;2023-11-21T14:48:54;7.10;99.90
8043;DHT22;4064;48.132;11.366;2023-11-21T14:51:39;7.00;99.90
8043;DHT22;4064;48.132;11.366;2023-11-21T14:54:28;7.00;99.90
8043;DHT22;4064;48.132;11.366;2023-11-21T14:57:08;7.00;99.90
8043;DHT22;4064;48.132;11.366;2023-11-21T14:59:37;7.00;99.90
8043;DHT22;4064;48.132;11.366;2023-11-21T15:02:04;7.00;99.90
8043;DHT22;4064;48.132;11.366;2023-11-21T15:04:46;6.90;99.90
8043;DHT22;4064;48.132;11.366;2023-11-21T15:07:13;6.80;99.90
8043;DHT22;4064;48.132;11.366;2023-11-21T15:09:39;6.80;99.90
8043;DHT22;4064;48.132;11.366;2023-11-21T15:12:08;6.90;99.90
8043;DHT22;4064;48.132;11.366;2023-11-21T15:14:44;6.90;99.90
8043;DHT22;4064;48.132;11.366;2023-11-21T15:17:12;6.90;99.90
8043;DHT22;4064;48.132;11.366;2023-11-21T15:19:42;6.80;99.90
8043;DHT22;4064;48.132;11.366;2023-11-21T15:22:09;6.70;99.90
8043;DHT22;4064;48.132;11.366;2023-11-21T15:24:36;6.70;99.90
8043;DHT22;4064;48.132;11.366;2023-11-21T15:27:01;6.80;99.90
8043;DHT22;4064;48.132;11.366;2023-11-21T15:29:29;7.00;99.90
8043;DHT22;4064;48.132;11.366;2023-11-21T15:31:54;7.00;99.90
8043;DHT22;4064;48.132;11.366;2023-11-21T15:34:21;7.00;99.90
8043;DHT22;4064;48.132;11.366;2023-11-21T15:36:47;7.10;99.90
8043;DHT22;4064;48.132;11.366;2023-11-21T15:39:18;7.00;99.90
8043;DHT22;4064;48.132;11.366;2023-11-21T15:41:43;7.00;99.90
8043;DHT22;4064;48.132;11.366;2023-11-21T15:44:12;7.00;99.90
8043;DHT22;4064;48.132;11.366;2023-11-21T15:46:40;6.90;99.90
8043;DHT22;4064;48.132;11.366;2023-11-21T15:49:07;7.00;99.90
8043;DHT22;4064;48.132;11.366;2023-11-21T15:51:43;7.00;99.90
8043;DHT22;4064;48.132;11.366;2023-11-21T15:54:12;7.00;99.90
8043;DHT22;4064;48.132;11.366;2023-11-21T15:56:38;6.90;99.90
8043;DHT22;4064;48.132;11.366;2023-11-21T15:59:04;7.00;99.90
8043;DHT22;4064;48.132;11.366;2023-11-21T16:01:31;6.90;99.90
8043;DHT22;4064;48.132;11.366;2023-11-21T16:03:57;7.00;99.90
8043;DHT22;4064;48.132;11.366;2023-11-21T16:06:26;6.90;99.90
8043;DHT22;4064;48.132;11.366;2023-11-21T16:08:52;6.90;99.90
8043;DHT22;4064;48.132;11.366;2023-11-21T16:11:18;7.00;99.90
8043;DHT22;4064;48.132;11.366;2023-11-21T16:13:44;6.90;99.90
8043;DHT22;4064;48.132;11.366;2023-11-21T16:16:11;6.90;99.90
8043;DHT22;4064;48.132;11.366;2023-11-21T16:18:37;6.80;99.90
8043;DHT22;4064;48.132;11.366;2023-11-21T16:21:03;6.70;99.90
8043;DHT22;4064;48.132;11.366;2023-11-21T16:23:28;6.70;99.90